sensor_id;sensor_type;location;lat;lon;timestamp;temperature;humidity
37984;DHT22;64625;50.882;4.376;2023-04-16T00:00:06;9.30;99.90
37984;DHT22;64625;50.882;4.376;2023-04-16T00:02:32;9.30;99.90
37984;DHT22;64625;50.882;4.376;2023-04-16T00:04:58;9.30;99.90
37984;DHT22;64625;50.882;4.376;2023-04-16T00:07:24;9.30;99.90
37984;DHT22;64625;50.882;4.376;2023-04-16T00:09:50;9.30;99.90
37984;DHT22;64625;50.882;4.376;2023-04-16T00:12:16;9.30;99.90
37984;DHT22;64625;50.882;4.376;2023-04-16T00:14:41;9.30;99.90
37984;DHT22;64625;50.882;4.376;2023-04-16T00:17:08;9.30;99.90
37984;DHT22;64625;50.882;4.376;2023-04-16T00:19:34;9.30;99.90
37984;DHT22;64625;50.882;4.376;2023-04-16T00:22:00;9.30;99.90
37984;DHT22;64625;50.882;4.376;2023-04-16T00:24:26;9.30;99.90
37984;DHT22;64625;50.882;4.376;2023-04-16T00:26:52;9.30;99.90
37984;DHT22;64625;50.882;4.376;2023-04-16T00:29:17;9.30;99.90
37984;DHT22;64625;50.882;4.376;2023-04-16T00:31:43;9.30;99.90
37984;DHT22;64625;50.882;4.376;2023-04-16T00:34:09;9.40;99.90
37984;DHT22;64625;50.882;4.376;2023-04-16T00:36:35;9.40;99.90
37984;DHT22;64625;50.882;4.376;2023-04-16T00:39:01;9.40;99.90
37984;DHT22;64625;50.882;4.376;2023-04-16T00:41:27;9.40;99.90
37984;DHT22;64625;50.882;4.376;2023-04-16T00:43:55;9.40;99.90
37984;DHT22;64625;50.882;4.376;2023-04-16T00:46:27;9.40;99.90
37984;DHT22;64625;50.882;4.376;2023-04-16T00:48:54;9.40;99.90
37984;DHT22;64625;50.882;4.376;2023-04-16T00:51:21;9.40;99.90
37984;DHT22;64625;50.882;4.376;2023-04-16T00:53:47;9.40;99.90
37984;DHT22;64625;50.882;4.376;2023-04-16T00:56:13;9.40;99.90
37984;DHT22;64625;50.882;4.376;2023-04-16T00:58:39;9.40;99.90
37984;DHT22;64625;50.882;4.376;2023-04-16T01:01:05;9.40;99.90
37984;DHT22;64625;50.882;4.376;2023-04-16T01:03:37;9.40;99.90
37984;DHT22;64625;50.882;4.376;2023-04-16T01:06:06;9.40;99.90
37984;DHT22;64625;50.882;4.376;2023-04-16T01:08:32;9.40;99.90
37984;DHT22;64625;50.882;4.376;2023-04-16T01:10:58;9.40;99.90
37984;DHT22;64625;50.882;4.376;2023-04-16T01:13:24;9.40;99.90
37984;DHT22;64625;50.882;4.376;2023-04-16T01:15:51;9.40;99.90
37984;DHT22;64625;50.882;4.376;2023-04-16T01:18:19;9.40;99.90
37984;DHT22;64625;50.882;4.376;2023-04-16T01:20:46;9.40;99.90
37984;DHT22;64625;50.882;4.376;2023-04-16T01:23:12;9.40;99.90
37984;DHT22;64625;50.882;4.376;2023-04-16T01:25:38;9.40;99.90
37984;DHT22;64625;50.882;4.376;2023-04-16T01:28:05;9.40;99.90
37984;DHT22;64625;50.882;4.376;2023-04-16T01:30:31;9.40;99.90
37984;DHT22;64625;50.882;4.376;2023-04-16T01:32:57;9.40;99.90
37984;DHT22;64625;50.882;4.376;2023-04-16T01:35:24;9.40;99.90
37984;DHT22;64625;50.882;4.376;2023-04-16T01:37:50;9.40;99.90
37984;DHT22;64625;50.882;4.376;2023-04-16T01:40:17;9.40;99.90
37984;DHT22;64625;50.882;4.376;2023-04-16T01:42:42;9.50;99.90
37984;DHT22;64625;50.882;4.376;2023-04-16T01:45:09;9.50;99.90
37984;DHT22;64625;50.882;4.376;2023-04-16T01:47:35;9.50;99.90
37984;DHT22;64625;50.882;4.376;2023-04-16T01:50:02;9.50;99.90
37984;DHT22;64625;50.882;4.376;2023-04-16T01:52:28;9.50;99.90
37984;DHT22;64625;50.882;4.376;2023-04-16T01:54:54;9.50;99.90
37984;DHT22;64625;50.882;4.376;2023-04-16T01:57:20;9.50;99.90
37984;DHT22;64625;50.882;4.376;2023-04-16T01:59:46;9.50;99.90
37984;DHT22;64625;50.882;4.376;2023-04-16T02:02:13;9.50;99.90
37984;DHT22;64625;50.882;4.376;2023-04-16T02:04:43;9.50;99.90
37984;DHT22;64625;50.882;4.376;2023-04-16T02:07:10;9.50;99.90
37984;DHT22;64625;50.882;4.376;2023-04-16T02:09:39;9.50;99.90
37984;DHT22;64625;50.882;4.376;2023-04-16T02:12:06;9.50;99.90
37984;DHT22;64625;50.882;4.376;2023-04-16T02:14:32;9.50;99.90
37984;DHT22;64625;50.882;4.376;2023-04-16T02:16:59;9.50;99.90
37984;DHT22;64625;50.882;4.376;2023-04-16T02:19:25;9.50;99.90
37984;DHT22;64625;50.882;4.376;2023-04-16T02:21:51;9.50;99.90
37984;DHT22;64625;50.882;4.376;2023-04-16T02:24:18;9.50;99.90
37984;DHT22;64625;50.882;4.376;2023-04-16T02:26:44;9.50;99.90
37984;DHT22;64625;50.882;4.376;2023-04-16T02:29:10;9.50;99.90
37984;DHT22;64625;50.882;4.376;2023-04-16T02:31:36;9.50;99.90
37984;DHT22;64625;50.882;4.376;2023-04-16T02:34:02;9.50;99.90
37984;DHT22;64625;50.882;4.376;2023-04-16T02:36:28;9.50;99.90
37984;DHT22;64625;50.882;4.376;2023-04-16T02:38:54;9.50;99.90
37984;DHT22;64625;50.882;4.376;2023-04-16T02:41:20;9.50;99.90
37984;DHT22;64625;50.882;4.376;2023-04-16T02:43:46;9.50;99.90
37984;DHT22;64625;50.882;4.376;2023-04-16T02:46:12;9.50;99.90
37984;DHT22;64625;50.882;4.376;2023-04-16T02:48:38;9.50;99.90
37984;DHT22;64625;50.882;4.376;2023-04-16T02:51:04;9.50;99.90
37984;DHT22;64625;50.882;4.376;2023-04-16T02:53:30;9.50;99.90
37984;DHT22;64625;50.882;4.376;2023-04-16T02:55:56;9.50;99.90
37984;DHT22;64625;50.882;4.376;2023-04-16T02:58:23;9.50;99.90
37984;DHT22;64625;50.882;4.376;2023-04-16T03:00:50;9.60;99.90
37984;DHT22;64625;50.882;4.376;2023-04-16T03:03:15;9.50;99.90
37984;DHT22;64625;50.882;4.376;2023-04-16T03:05:41;9.50;99.90
37984;DHT22;64625;50.882;4.376;2023-04-16T03:08:07;9.60;99.90
37984;DHT22;64625;50.882;4.376;2023-04-16T03:10:33;9.60;99.90
37984;DHT22;64625;50.882;4.376;2023-04-16T03:13:00;9.60;99.90
37984;DHT22;64625;50.882;4.376;2023-04-16T03:15:26;9.60;99.90
37984;DHT22;64625;50.882;4.376;2023-04-16T03:17:52;9.60;99.90
37984;DHT22;64625;50.882;4.376;2023-04-16T03:20:19;9.60;99.90
37984;DHT22;64625;50.882;4.376;2023-04-16T03:22:49;9.60;99.90
37984;DHT22;64625;50.882;4.376;2023-04-16T03:25:17;9.60;99.90
37984;DHT22;64625;50.882;4.376;2023-04-16T03:27:43;9.60;99.90
37984;DHT22;64625;50.882;4.376;2023-04-16T03:30:15;9.60;99.90
37984;DHT22;64625;50.882;4.376;2023-04-16T03:32:41;9.60;99.90
37984;DHT22;64625;50.882;4.376;2023-04-16T03:35:07;9.60;99.90
37984;DHT22;64625;50.882;4.376;2023-04-16T03:37:34;9.60;99.90
37984;DHT22;64625;50.882;4.376;2023-04-16T03:40:00;9.60;99.90
37984;DHT22;64625;50.882;4.376;2023-04-16T03:42:26;9.60;99.90
37984;DHT22;64625;50.882;4.376;2023-04-16T03:44:52;9.70;99.90
37984;DHT22;64625;50.882;4.376;2023-04-16T03:47:21;9.70;99.90
37984;DHT22;64625;50.882;4.376;2023-04-16T03:49:48;9.70;99.90
37984;DHT22;64625;50.882;4.376;2023-04-16T03:52:14;9.80;99.90
37984;DHT22;64625;50.882;4.376;2023-04-16T03:54:39;9.80;99.90
37984;DHT22;64625;50.882;4.376;2023-04-16T03:57:05;9.80;99.90
37984;DHT22;64625;50.882;4.376;2023-04-16T03:59:31;9.80;99.90
37984;DHT22;64625;50.882;4.376;2023-04-16T04:01:56;9.80;99.90
37984;DHT22;64625;50.882;4.376;2023-04-16T04:04:22;9.80;99.90
37984;DHT22;64625;50.882;4.376;2023-04-16T04:06:48;9.70;99.90
37984;DHT22;64625;50.882;4.376;2023-04-16T04:09:14;9.70;99.90
37984;DHT22;64625;50.882;4.376;2023-04-16T04:11:42;9.80;99.90
37984;DHT22;64625;50.882;4.376;2023-04-16T04:14:08;9.70;99.90
37984;DHT22;64625;50.882;4.376;2023-04-16T04:16:34;9.70;99.90
37984;DHT22;64625;50.882;4.376;2023-04-16T04:19:00;9.70;99.90
37984;DHT22;64625;50.882;4.376;2023-04-16T04:21:27;9.70;99.90
37984;DHT22;64625;50.882;4.376;2023-04-16T04:23:53;9.70;99.90
37984;DHT22;64625;50.882;4.376;2023-04-16T04:26:18;9.70;99.90
37984;DHT22;64625;50.882;4.376;2023-04-16T04:28:44;9.60;99.90
37984;DHT22;64625;50.882;4.376;2023-04-16T04:31:11;9.60;99.90
37984;DHT22;64625;50.882;4.376;2023-04-16T04:33:37;9.50;99.90
37984;DHT22;64625;50.882;4.376;2023-04-16T04:36:03;9.50;99.90
37984;DHT22;64625;50.882;4.376;2023-04-16T04:38:29;9.50;99.90
37984;DHT22;64625;50.882;4.376;2023-04-16T04:40:55;9.50;99.90
37984;DHT22;64625;50.882;4.376;2023-04-16T04:43:22;9.50;99.90
37984;DHT22;64625;50.882;4.376;2023-04-16T04:45:48;9.50;99.90
37984;DHT22;64625;50.882;4.376;2023-04-16T04:48:14;9.50;99.90
37984;DHT22;64625;50.882;4.376;2023-04-16T04:50:41;9.50;99.90
37984;DHT22;64625;50.882;4.376;2023-04-16T04:53:07;9.50;99.90
37984;DHT22;64625;50.882;4.376;2023-04-16T04:55:39;9.50;99.90
37984;DHT22;64625;50.882;4.376;2023-04-16T04:58:06;9.50;99.90
37984;DHT22;64625;50.882;4.376;2023-04-16T05:00:33;9.50;99.90
37984;DHT22;64625;50.882;4.376;2023-04-16T05:03:03;9.50;99.90
37984;DHT22;64625;50.882;4.376;2023-04-16T05:05:29;9.50;99.90
37984;DHT22;64625;50.882;4.376;2023-04-16T05:07:55;9.50;99.90
37984;DHT22;64625;50.882;4.376;2023-04-16T05:10:21;9.50;99.90
37984;DHT22;64625;50.882;4.376;2023-04-16T05:12:46;9.50;99.90
37984;DHT22;64625;50.882;4.376;2023-04-16T05:15:13;9.50;99.90
37984;DHT22;64625;50.882;4.376;2023-04-16T05:17:39;9.50;99.90
37984;DHT22;64625;50.882;4.376;2023-04-16T05:20:06;9.50;99.90
37984;DHT22;64625;50.882;4.376;2023-04-16T05:22:33;9.60;99.90
37984;DHT22;64625;50.882;4.376;2023-04-16T05:24:59;9.50;99.90
37984;DHT22;64625;50.882;4.376;2023-04-16T05:27:25;9.60;99.90
37984;DHT22;64625;50.882;4.376;2023-04-16T05:29:51;9.60;99.90
37984;DHT22;64625;50.882;4.376;2023-04-16T05:32:16;9.60;99.90
37984;DHT22;64625;50.882;4.376;2023-04-16T05:34:42;9.60;99.90
37984;DHT22;64625;50.882;4.376;2023-04-16T05:37:08;9.60;99.90
37984;DHT22;64625;50.882;4.376;2023-04-16T05:39:34;9.60;99.90
37984;DHT22;64625;50.882;4.376;2023-04-16T05:41:59;9.60;99.90
37984;DHT22;64625;50.882;4.376;2023-04-16T05:44:26;9.60;99.90
37984;DHT22;64625;50.882;4.376;2023-04-16T05:46:51;9.60;99.90
37984;DHT22;64625;50.882;4.376;2023-04-16T05:49:17;9.60;99.90
37984;DHT22;64625;50.882;4.376;2023-04-16T05:51:47;9.60;99.90
37984;DHT22;64625;50.882;4.376;2023-04-16T05:54:12;9.60;99.90
37984;DHT22;64625;50.882;4.376;2023-04-16T05:56:38;9.60;99.90
37984;DHT22;64625;50.882;4.376;2023-04-16T05:59:04;9.60;99.90
37984;DHT22;64625;50.882;4.376;2023-04-16T06:01:30;9.60;99.90
37984;DHT22;64625;50.882;4.376;2023-04-16T06:03:56;9.60;99.90
37984;DHT22;64625;50.882;4.376;2023-04-16T06:06:22;9.60;99.90
37984;DHT22;64625;50.882;4.376;2023-04-16T06:08:47;9.60;99.90
37984;DHT22;64625;50.882;4.376;2023-04-16T06:11:13;9.60;99.90
37984;DHT22;64625;50.882;4.376;2023-04-16T06:13:41;9.60;99.90
37984;DHT22;64625;50.882;4.376;2023-04-16T06:16:06;9.60;99.90
37984;DHT22;64625;50.882;4.376;2023-04-16T06:18:32;9.60;99.90
37984;DHT22;64625;50.882;4.376;2023-04-16T06:20:58;9.60;99.90
37984;DHT22;64625;50.882;4.376;2023-04-16T06:23:24;9.60;99.90
37984;DHT22;64625;50.882;4.376;2023-04-16T06:25:50;9.60;99.90
37984;DHT22;64625;50.882;4.376;2023-04-16T06:28:16;9.60;99.90
37984;DHT22;64625;50.882;4.376;2023-04-16T06:30:43;9.60;99.90
37984;DHT22;64625;50.882;4.376;2023-04-16T06:33:09;9.60;99.90
37984;DHT22;64625;50.882;4.376;2023-04-16T06:35:34;9.60;99.90
37984;DHT22;64625;50.882;4.376;2023-04-16T06:38:00;9.60;99.90
37984;DHT22;64625;50.882;4.376;2023-04-16T06:40:29;9.60;99.90
37984;DHT22;64625;50.882;4.376;2023-04-16T06:42:55;9.60;99.90
37984;DHT22;64625;50.882;4.376;2023-04-16T06:45:21;9.60;99.90
37984;DHT22;64625;50.882;4.376;2023-04-16T06:47:47;9.60;99.90
37984;DHT22;64625;50.882;4.376;2023-04-16T06:50:13;9.60;99.90
37984;DHT22;64625;50.882;4.376;2023-04-16T06:52:39;9.60;99.90
37984;DHT22;64625;50.882;4.376;2023-04-16T06:55:05;9.60;99.90
37984;DHT22;64625;50.882;4.376;2023-04-16T06:57:32;9.60;99.90
37984;DHT22;64625;50.882;4.376;2023-04-16T06:59:58;9.60;99.90
37984;DHT22;64625;50.882;4.376;2023-04-16T07:02:24;9.60;99.90
37984;DHT22;64625;50.882;4.376;2023-04-16T07:04:50;9.60;99.90
37984;DHT22;64625;50.882;4.376;2023-04-16T07:07:17;9.60;99.90
37984;DHT22;64625;50.882;4.376;2023-04-16T07:09:43;9.60;99.90
37984;DHT22;64625;50.882;4.376;2023-04-16T07:12:08;9.70;99.90
37984;DHT22;64625;50.882;4.376;2023-04-16T07:14:35;9.60;99.90
37984;DHT22;64625;50.882;4.376;2023-04-16T07:17:01;9.70;99.90
37984;DHT22;64625;50.882;4.376;2023-04-16T07:19:27;9.70;99.90
37984;DHT22;64625;50.882;4.376;2023-04-16T07:21:58;9.60;99.90
37984;DHT22;64625;50.882;4.376;2023-04-16T07:24:24;9.70;99.90
37984;DHT22;64625;50.882;4.376;2023-04-16T07:26:52;9.70;99.90
37984;DHT22;64625;50.882;4.376;2023-04-16T07:29:18;9.60;99.90
37984;DHT22;64625;50.882;4.376;2023-04-16T07:31:44;9.70;99.90
37984;DHT22;64625;50.882;4.376;2023-04-16T07:34:16;9.60;99.90
37984;DHT22;64625;50.882;4.376;2023-04-16T07:36:41;9.70;99.90
37984;DHT22;64625;50.882;4.376;2023-04-16T07:39:07;9.70;99.90
37984;DHT22;64625;50.882;4.376;2023-04-16T07:41:32;9.70;99.90
37984;DHT22;64625;50.882;4.376;2023-04-16T07:43:59;9.70;99.90
37984;DHT22;64625;50.882;4.376;2023-04-16T07:46:25;9.70;99.90
37984;DHT22;64625;50.882;4.376;2023-04-16T07:48:50;9.70;99.90
37984;DHT22;64625;50.882;4.376;2023-04-16T07:51:16;9.70;99.90
37984;DHT22;64625;50.882;4.376;2023-04-16T07:53:42;9.70;99.90
37984;DHT22;64625;50.882;4.376;2023-04-16T07:56:08;9.70;99.90
37984;DHT22;64625;50.882;4.376;2023-04-16T07:58:34;9.80;99.90
37984;DHT22;64625;50.882;4.376;2023-04-16T08:01:00;9.80;99.90
37984;DHT22;64625;50.882;4.376;2023-04-16T08:03:26;9.80;99.90
37984;DHT22;64625;50.882;4.376;2023-04-16T08:05:54;9.80;99.90
37984;DHT22;64625;50.882;4.376;2023-04-16T08:08:20;9.80;99.90
37984;DHT22;64625;50.882;4.376;2023-04-16T08:10:46;9.90;99.90
37984;DHT22;64625;50.882;4.376;2023-04-16T08:13:12;9.90;99.90
37984;DHT22;64625;50.882;4.376;2023-04-16T08:15:38;9.90;99.90
37984;DHT22;64625;50.882;4.376;2023-04-16T08:18:03;9.90;99.90
37984;DHT22;64625;50.882;4.376;2023-04-16T08:20:31;9.90;99.90
37984;DHT22;64625;50.882;4.376;2023-04-16T08:22:57;9.90;99.90
37984;DHT22;64625;50.882;4.376;2023-04-16T08:25:23;10.00;99.90
37984;DHT22;64625;50.882;4.376;2023-04-16T08:27:49;10.00;99.90
37984;DHT22;64625;50.882;4.376;2023-04-16T08:30:15;10.00;99.90
37984;DHT22;64625;50.882;4.376;2023-04-16T08:32:42;10.00;99.90
37984;DHT22;64625;50.882;4.376;2023-04-16T08:35:08;10.00;99.90
37984;DHT22;64625;50.882;4.376;2023-04-16T08:37:40;10.00;99.90
37984;DHT22;64625;50.882;4.376;2023-04-16T08:40:07;10.00;99.90
37984;DHT22;64625;50.882;4.376;2023-04-16T08:42:53;10.00;99.90
37984;DHT22;64625;50.882;4.376;2023-04-16T08:45:25;10.00;99.90
37984;DHT22;64625;50.882;4.376;2023-04-16T08:47:52;10.00;99.90
37984;DHT22;64625;50.882;4.376;2023-04-16T08:50:26;10.00;99.90
37984;DHT22;64625;50.882;4.376;2023-04-16T08:53:02;10.00;99.90
37984;DHT22;64625;50.882;4.376;2023-04-16T08:55:47;10.00;99.90
37984;DHT22;64625;50.882;4.376;2023-04-16T08:58:19;10.00;99.90
37984;DHT22;64625;50.882;4.376;2023-04-16T09:00:47;10.10;99.90
37984;DHT22;64625;50.882;4.376;2023-04-16T09:03:13;10.00;99.90
37984;DHT22;64625;50.882;4.376;2023-04-16T09:05:41;10.10;99.90
37984;DHT22;64625;50.882;4.376;2023-04-16T09:08:07;10.00;99.90
37984;DHT22;64625;50.882;4.376;2023-04-16T09:10:33;10.00;99.90
37984;DHT22;64625;50.882;4.376;2023-04-16T09:13:00;10.00;99.90
37984;DHT22;64625;50.882;4.376;2023-04-16T09:15:26;10.10;99.90
37984;DHT22;64625;50.882;4.376;2023-04-16T09:17:52;10.00;99.90
37984;DHT22;64625;50.882;4.376;2023-04-16T09:20:19;10.10;99.90
37984;DHT22;64625;50.882;4.376;2023-04-16T09:22:45;10.10;99.90
37984;DHT22;64625;50.882;4.376;2023-04-16T09:25:11;10.10;99.90
37984;DHT22;64625;50.882;4.376;2023-04-16T09:27:38;10.00;99.90
37984;DHT22;64625;50.882;4.376;2023-04-16T09:30:23;10.10;99.90
37984;DHT22;64625;50.882;4.376;2023-04-16T09:32:51;10.10;99.90
37984;DHT22;64625;50.882;4.376;2023-04-16T09:35:20;10.10;99.90
37984;DHT22;64625;50.882;4.376;2023-04-16T09:37:56;10.10;99.90
37984;DHT22;64625;50.882;4.376;2023-04-16T09:40:26;10.10;99.90
37984;DHT22;64625;50.882;4.376;2023-04-16T09:42:56;10.10;99.90
37984;DHT22;64625;50.882;4.376;2023-04-16T09:45:23;10.10;99.90
37984;DHT22;64625;50.882;4.376;2023-04-16T09:47:49;10.10;99.90
37984;DHT22;64625;50.882;4.376;2023-04-16T09:50:17;10.10;99.90
37984;DHT22;64625;50.882;4.376;2023-04-16T09:52:47;10.10;99.90
37984;DHT22;64625;50.882;4.376;2023-04-16T09:55:13;10.10;99.90
37984;DHT22;64625;50.882;4.376;2023-04-16T09:57:39;10.10;99.90
37984;DHT22;64625;50.882;4.376;2023-04-16T10:00:06;10.10;99.90
37984;DHT22;64625;50.882;4.376;2023-04-16T10:02:34;10.10;99.90
37984;DHT22;64625;50.882;4.376;2023-04-16T10:05:01;10.10;99.90
37984;DHT22;64625;50.882;4.376;2023-04-16T10:07:28;10.20;99.90
37984;DHT22;64625;50.882;4.376;2023-04-16T10:09:54;10.20;99.90
37984;DHT22;64625;50.882;4.376;2023-04-16T10:12:21;10.20;99.90
37984;DHT22;64625;50.882;4.376;2023-04-16T10:14:48;10.20;99.90
37984;DHT22;64625;50.882;4.376;2023-04-16T10:17:16;10.20;99.90
37984;DHT22;64625;50.882;4.376;2023-04-16T10:19:42;10.20;99.90
37984;DHT22;64625;50.882;4.376;2023-04-16T10:22:08;10.20;99.90
37984;DHT22;64625;50.882;4.376;2023-04-16T10:24:34;10.20;99.90
37984;DHT22;64625;50.882;4.376;2023-04-16T10:27:05;10.20;99.90
37984;DHT22;64625;50.882;4.376;2023-04-16T10:29:31;10.20;99.90
37984;DHT22;64625;50.882;4.376;2023-04-16T10:31:58;10.20;99.90
37984;DHT22;64625;50.882;4.376;2023-04-16T10:34:24;10.20;99.90
37984;DHT22;64625;50.882;4.376;2023-04-16T10:36:52;10.20;99.90
37984;DHT22;64625;50.882;4.376;2023-04-16T10:39:26;10.30;99.90
37984;DHT22;64625;50.882;4.376;2023-04-16T10:42:08;10.30;99.90
37984;DHT22;64625;50.882;4.376;2023-04-16T10:44:39;10.30;99.90
37984;DHT22;64625;50.882;4.376;2023-04-16T10:47:12;10.30;99.90
37984;DHT22;64625;50.882;4.376;2023-04-16T10:49:39;10.30;99.90
37984;DHT22;64625;50.882;4.376;2023-04-16T10:52:12;10.30;99.90
37984;DHT22;64625;50.882;4.376;2023-04-16T10:54:41;10.30;99.90
37984;DHT22;64625;50.882;4.376;2023-04-16T10:57:15;10.30;99.90
37984;DHT22;64625;50.882;4.376;2023-04-16T10:59:44;10.30;99.90
37984;DHT22;64625;50.882;4.376;2023-04-16T11:02:19;10.30;99.90
37984;DHT22;64625;50.882;4.376;2023-04-16T11:04:46;10.30;99.90
37984;DHT22;64625;50.882;4.376;2023-04-16T11:09:44;10.40;99.90
37984;DHT22;64625;50.882;4.376;2023-04-16T11:12:16;10.40;99.90
37984;DHT22;64625;50.882;4.376;2023-04-16T11:14:50;10.40;99.90
37984;DHT22;64625;50.882;4.376;2023-04-16T11:17:17;10.40;99.90
37984;DHT22;64625;50.882;4.376;2023-04-16T11:19:43;10.50;99.90
37984;DHT22;64625;50.882;4.376;2023-04-16T11:22:13;10.50;99.90
37984;DHT22;64625;50.882;4.376;2023-04-16T11:24:45;10.50;99.90
37984;DHT22;64625;50.882;4.376;2023-04-16T11:27:12;10.50;99.90
37984;DHT22;64625;50.882;4.376;2023-04-16T11:29:38;10.60;99.90
37984;DHT22;64625;50.882;4.376;2023-04-16T11:32:04;10.60;99.90
37984;DHT22;64625;50.882;4.376;2023-04-16T11:34:30;10.60;99.90
37984;DHT22;64625;50.882;4.376;2023-04-16T11:36:57;10.60;99.90
37984;DHT22;64625;50.882;4.376;2023-04-16T11:39:23;10.60;99.90
37984;DHT22;64625;50.882;4.376;2023-04-16T11:41:50;10.70;99.90
37984;DHT22;64625;50.882;4.376;2023-04-16T11:44:25;10.70;99.90
37984;DHT22;64625;50.882;4.376;2023-04-16T11:46:52;10.70;99.90
37984;DHT22;64625;50.882;4.376;2023-04-16T11:49:28;10.80;99.90
37984;DHT22;64625;50.882;4.376;2023-04-16T11:51:56;10.80;99.90
37984;DHT22;64625;50.882;4.376;2023-04-16T11:54:23;10.80;99.90
37984;DHT22;64625;50.882;4.376;2023-04-16T11:56:51;10.90;99.90
37984;DHT22;64625;50.882;4.376;2023-04-16T11:59:19;10.90;99.90
37984;DHT22;64625;50.882;4.376;2023-04-16T12:01:59;10.90;99.90
37984;DHT22;64625;50.882;4.376;2023-04-16T12:04:26;11.00;99.90
37984;DHT22;64625;50.882;4.376;2023-04-16T12:09:38;11.00;99.90
37984;DHT22;64625;50.882;4.376;2023-04-16T12:12:04;11.00;99.90
37984;DHT22;64625;50.882;4.376;2023-04-16T12:14:30;11.00;99.90
37984;DHT22;64625;50.882;4.376;2023-04-16T12:17:19;11.00;99.90
37984;DHT22;64625;50.882;4.376;2023-04-16T12:19:54;11.00;99.90
37984;DHT22;64625;50.882;4.376;2023-04-16T12:22:32;11.00;99.90
37984;DHT22;64625;50.882;4.376;2023-04-16T12:25:04;11.10;99.90
37984;DHT22;64625;50.882;4.376;2023-04-16T12:27:50;11.10;99.90
37984;DHT22;64625;50.882;4.376;2023-04-16T12:30:18;11.10;99.90
37984;DHT22;64625;50.882;4.376;2023-04-16T12:32:46;11.10;99.90
37984;DHT22;64625;50.882;4.376;2023-04-16T12:35:12;11.10;99.90
37984;DHT22;64625;50.882;4.376;2023-04-16T12:37:39;11.10;99.90
37984;DHT22;64625;50.882;4.376;2023-04-16T12:40:06;11.10;99.90
37984;DHT22;64625;50.882;4.376;2023-04-16T12:42:32;11.10;99.90
37984;DHT22;64625;50.882;4.376;2023-04-16T12:45:03;11.10;99.90
37984;DHT22;64625;50.882;4.376;2023-04-16T12:47:32;11.10;99.90
37984;DHT22;64625;50.882;4.376;2023-04-16T12:49:59;11.10;99.90
37984;DHT22;64625;50.882;4.376;2023-04-16T12:52:25;11.10;99.90
37984;DHT22;64625;50.882;4.376;2023-04-16T12:54:51;11.20;99.90
37984;DHT22;64625;50.882;4.376;2023-04-16T12:57:18;11.20;99.90
37984;DHT22;64625;50.882;4.376;2023-04-16T12:59:44;11.20;99.90
37984;DHT22;64625;50.882;4.376;2023-04-16T13:02:11;11.30;99.90
37984;DHT22;64625;50.882;4.376;2023-04-16T13:04:37;11.30;99.90
37984;DHT22;64625;50.882;4.376;2023-04-16T13:07:03;11.30;99.90
37984;DHT22;64625;50.882;4.376;2023-04-16T13:09:29;11.30;99.90
37984;DHT22;64625;50.882;4.376;2023-04-16T13:11:55;11.30;99.90
37984;DHT22;64625;50.882;4.376;2023-04-16T13:14:21;11.30;99.90
37984;DHT22;64625;50.882;4.376;2023-04-16T13:16:47;11.40;99.90
37984;DHT22;64625;50.882;4.376;2023-04-16T13:19:13;11.40;99.90
37984;DHT22;64625;50.882;4.376;2023-04-16T13:21:41;11.40;99.90
37984;DHT22;64625;50.882;4.376;2023-04-16T13:24:07;11.40;99.90
37984;DHT22;64625;50.882;4.376;2023-04-16T13:26:33;11.40;99.90
37984;DHT22;64625;50.882;4.376;2023-04-16T13:28:59;11.50;99.90
37984;DHT22;64625;50.882;4.376;2023-04-16T13:31:25;11.50;99.90
37984;DHT22;64625;50.882;4.376;2023-04-16T13:33:51;11.50;99.90
37984;DHT22;64625;50.882;4.376;2023-04-16T13:36:17;11.60;99.90
37984;DHT22;64625;50.882;4.376;2023-04-16T13:38:42;11.60;99.90
37984;DHT22;64625;50.882;4.376;2023-04-16T13:41:12;11.60;99.90
37984;DHT22;64625;50.882;4.376;2023-04-16T13:43:37;11.60;99.90
37984;DHT22;64625;50.882;4.376;2023-04-16T13:46:03;11.70;99.90
37984;DHT22;64625;50.882;4.376;2023-04-16T13:48:29;11.70;99.90
37984;DHT22;64625;50.882;4.376;2023-04-16T13:50:55;11.70;99.90
37984;DHT22;64625;50.882;4.376;2023-04-16T13:53:21;11.80;99.90
37984;DHT22;64625;50.882;4.376;2023-04-16T13:55:47;11.80;99.90
37984;DHT22;64625;50.882;4.376;2023-04-16T13:58:14;11.80;99.90
37984;DHT22;64625;50.882;4.376;2023-04-16T14:00:41;11.80;99.90
37984;DHT22;64625;50.882;4.376;2023-04-16T14:03:08;11.90;99.90
37984;DHT22;64625;50.882;4.376;2023-04-16T14:05:33;11.90;99.90
37984;DHT22;64625;50.882;4.376;2023-04-16T14:07:59;11.90;99.90
37984;DHT22;64625;50.882;4.376;2023-04-16T14:10:25;11.90;99.90
37984;DHT22;64625;50.882;4.376;2023-04-16T14:12:51;12.00;99.90
37984;DHT22;64625;50.882;4.376;2023-04-16T14:15:17;12.00;99.90
37984;DHT22;64625;50.882;4.376;2023-04-16T14:17:43;12.00;99.90
37984;DHT22;64625;50.882;4.376;2023-04-16T14:20:13;12.00;99.90
37984;DHT22;64625;50.882;4.376;2023-04-16T14:22:38;12.10;99.90
37984;DHT22;64625;50.882;4.376;2023-04-16T14:25:07;12.10;99.90
37984;DHT22;64625;50.882;4.376;2023-04-16T14:27:33;12.10;99.90
37984;DHT22;64625;50.882;4.376;2023-04-16T14:30:00;12.20;99.90
37984;DHT22;64625;50.882;4.376;2023-04-16T14:32:26;12.20;99.90
37984;DHT22;64625;50.882;4.376;2023-04-16T14:34:52;12.20;99.90
37984;DHT22;64625;50.882;4.376;2023-04-16T14:37:17;12.20;99.90
37984;DHT22;64625;50.882;4.376;2023-04-16T14:39:43;12.30;99.90
37984;DHT22;64625;50.882;4.376;2023-04-16T14:42:09;12.30;99.90
37984;DHT22;64625;50.882;4.376;2023-04-16T14:44:35;12.30;99.90
37984;DHT22;64625;50.882;4.376;2023-04-16T14:47:01;12.40;99.90
37984;DHT22;64625;50.882;4.376;2023-04-16T14:49:27;12.40;99.90
37984;DHT22;64625;50.882;4.376;2023-04-16T14:51:53;12.40;99.90
37984;DHT22;64625;50.882;4.376;2023-04-16T14:54:19;12.40;99.90
37984;DHT22;64625;50.882;4.376;2023-04-16T14:56:45;12.40;99.90
37984;DHT22;64625;50.882;4.376;2023-04-16T14:59:12;12.40;99.90
37984;DHT22;64625;50.882;4.376;2023-04-16T15:01:38;12.40;99.90
37984;DHT22;64625;50.882;4.376;2023-04-16T15:04:07;12.50;99.90
37984;DHT22;64625;50.882;4.376;2023-04-16T15:06:33;12.50;99.90
37984;DHT22;64625;50.882;4.376;2023-04-16T15:09:00;12.50;99.90
37984;DHT22;64625;50.882;4.376;2023-04-16T15:11:26;12.50;99.90
37984;DHT22;64625;50.882;4.376;2023-04-16T15:13:53;12.50;99.90
37984;DHT22;64625;50.882;4.376;2023-04-16T15:16:19;12.50;99.90
37984;DHT22;64625;50.882;4.376;2023-04-16T15:18:44;12.50;99.90
37984;DHT22;64625;50.882;4.376;2023-04-16T15:21:12;12.50;99.90
37984;DHT22;64625;50.882;4.376;2023-04-16T15:23:38;12.50;99.90
37984;DHT22;64625;50.882;4.376;2023-04-16T15:26:03;12.50;99.90
37984;DHT22;64625;50.882;4.376;2023-04-16T15:28:30;12.40;99.90
37984;DHT22;64625;50.882;4.376;2023-04-16T15:30:56;12.40;99.90
37984;DHT22;64625;50.882;4.376;2023-04-16T15:33:22;12.40;99.90
37984;DHT22;64625;50.882;4.376;2023-04-16T15:35:48;12.40;99.90
37984;DHT22;64625;50.882;4.376;2023-04-16T15:38:16;12.40;99.90
37984;DHT22;64625;50.882;4.376;2023-04-16T15:40:42;12.40;99.90
37984;DHT22;64625;50.882;4.376;2023-04-16T15:43:08;12.40;99.90